Monday, October 16, 2017, 11:51 PM EDT

KDOV, Dover Air Force Base

Location: Dover, DE, United States Lat: 39.133
Local Time: 11:51 PM EDT ( 3:51 GMT) Lon: -75.467
Time Zone: US/Eastern Elev: 29 ft

Show me the last for .
Show Decoded

2017-10-16 22:58 METAR KDOV 170258Z 32005KT 10SM CLR 09/06 A3021 RMK AO2A SLP233 52022 $ =
2017-10-16 21:58 METAR KDOV 170158Z 34004KT 10SM CLR 09/06 A3019 RMK AO2A SLP227 T00880058 $ =
2017-10-16 20:58 METAR KDOV 170058Z 36003KT 10SM CLR 11/06 A3016 RMK AO2A SLP216 T01050055 $ =
2017-10-16 19:58 METAR KDOV 162358Z 33006KT 10SM CLR 11/06 A3014 RMK AO2A SLP210 T01070057 10159
                 20101 52020 $ =
2017-10-16 18:58 METAR KDOV 162258Z 32006KT 10SM CLR 12/06 A3012 RMK AO2A SLP203 T01180058 $ =
2017-10-16 17:00 METAR KDOV 162100Z 32009KT 10SM CLR 14/07 A3008 RMK SLP189 $ =
2017-10-16 16:58 METAR KDOV 162058Z 32009KT 10SM CLR 15/07 A3008 RMK AO2A SLP189 T014600659 52012
                 $ =
2017-10-16 15:58 METAR KDOV 161958Z 31014KT 10SM CLR 15/06 A3007 RMK AO2A SLP186 T01500059 $ =
2017-10-16 14:58 METAR KDOV 161858Z 31014G21KT 10SM SCT038 15/06 A3005 RMK AO2A SLP179 T01520059
                 $ =
2017-10-16 13:58 METAR KDOV 161758Z 32013G18KT 10SM OVC044 15/07 A3005 RMK AO2A SLP179 60003
                 10162 20142 51013 $ =
2017-10-16 12:58 METAR KDOV 161658Z 32009KT 10SM SCT036 SCT043 BKN160 14/07 A3005 RMK AO2A SLP179
                 $ =
2017-10-16 12:13 METAR KDOV 161613Z 32016G20KT 10SM OVC031 15/10 A3004 RMK AO2A SLP176 $ =
2017-10-16 12:08 METAR KDOV 161608Z 33015G20KT 10SM BKN029 15/10 A3004 RMK AO2A SLP176 $ =
2017-10-16 11:58 METAR KDOV 161558Z 33012KT 10SM BKN030 BKN160 16/10 A3004 RMK AO2A SLP176 $ =
2017-10-16 10:58 METAR KDOV 161458Z 33012KT 10SM FEW020 SCT050 BKN080 BKN170 15/13 A3001 RMK AO2A
                 CIG 041 RWY19 SLP165 60003 T01540133 50010 $ =
2017-10-16 09:58 METAR KDOV 161358Z 31011KT 10SM FEW020 BKN040 BKN080 16/13 A3002 RMK AO2A RAE22
                 SLP169 P0001 T01610134 $ =
2017-10-16 09:22 METAR KDOV 161322Z 30008KT 10SM FEW020 BKN040 BKN080 16/14 A2999 RMK RAE22
                 SLP159 =
2017-10-16 08:58 METAR KDOV 161258Z 26006KT 10SM -RA BKN030 BKN080 16/14 A3000 RMK AO2A SLP162
                 P0002 T01550143 $ =
2017-10-16 08:30 METAR KDOV 161230Z AUTO 27005KT 10SM SCT095 15/15 A2997 RMK AO2 RAE28DZB28E30
                 SLP152 =
2017-10-16 08:19 METAR KDOV 161219Z 30004KT 10SM -RA BKN050 BKN080 15/14 A2996 RMK AO2A SLP149 =
2017-10-16 07:58 METAR KDOV 161158Z 24005KT 10SM -RA BKN020 BKN080 15/14 A2998 RMK AO2A
                 RAE22RAB55 SLP155 P0000 60012 70012 T01500141 10218 20147 50023 $ =
2017-10-16 07:55 METAR KDOV 161155Z 24004KT 10SM -RA BKN020 BKN080 15/14 A2997 RMK AO2A
                 RAE22RAB55 SLP152 =
2017-10-16 07:31 METAR KDOV 161131Z 22004KT 10SM FEW003 BKN020 BKN080 15/14 A2996 RMK RAE31
                 SLP149 =
2017-10-16 06:58 METAR KDOV 161058Z 23004KT 9SM -RA FEW028 OVC048 15/14 A2995 RMK AO2A SLP145
                 P0010 $ =
2017-10-16 06:43 METAR KDOV 161043Z 26005KT 8SM -RA FEW028 BKN047 15/13 A2996 RMK AO2A SLP149 $ =
2017-10-16 06:03 METAR KDOV 161003Z 32005KT 6SM RA BR OVC043 15/13 A2996 RMK AO2A SLP149 $ =
2017-10-16 05:58 METAR KDOV 160958Z 31007KT 6SM -RA BR OVC043 15/13 A2996 RMK AO2A PK WND
                 30026/13 DZE0859RAB14E18DZB18E19RAB19E23DZB23E30RAB33E34DZB34E36RAB36 SLP149
                 P0002 $ =
2017-10-16 05:51 METAR KDOV 160951Z 31006KT 8SM RA OVC041 15/13 A2996 RMK AO2A
                 DZE0859RAB14E18DZB18E19RAB19E23DZB23E30RAB33E34DZB34E36RAB36 PRESRR SLP149 =
2017-10-16 05:33 METAR KDOV 160933Z 31010KT 10SM -RA FEW027 OVC041 16/14 A2994 RMK AO2A
                 DZE0859RAB14E18DZB18E19RAB19E23DZB23E30RAB33 SLP142 $ =
2017-10-16 05:30 METAR KDOV 160930Z 31014KT 10SM FEW027 OVC041 16/14 A2994 RMK AO2A
                 DZE0859RAB14E18DZB18E19RAB19E23DZB23E30 SLP142 =
2017-10-16 05:14 METAR KDOV 160914Z 30021G26KT 10SM -RA FEW027 OVC039 18/14 A2993 RMK AO2A
                 DZE0859RAB14 PRESRR SLP138 =
2017-10-16 04:59 METAR KDOV 160859Z 30013KT 10SM OVC035 18/14 A2991 RMK AO2A DZE59 SLP132 $ =
2017-10-16 04:58 METAR KDOV 160858Z 31012KT 10SM -DZ OVC035 18/14 A2991 RMK AO2A RAB42E57DZB57
                 SLP132 P0000 60000 53017 $ =
2017-10-16 04:42 METAR KDOV 160842Z 31012G19KT 10SM -RA BKN035 OVC050 19/14 A2991 RMK AO2A RAB42
                 SLP132 =
2017-10-16 04:03 METAR KDOV 160803Z 31012G21KT 10SM FEW014 SCT021 SCT027 BKN050 OVC085 19/14
                 A2988 RMK AO2A SLP121 $ =
2017-10-16 03:58 METAR KDOV 160758Z 32012G19KT 10SM FEW015 SCT021 BKN026 BKN050 OVC090 19/14
                 A2987 RMK AO2A PK WND 31026/32 SLP118 $ =
2017-10-16 03:30 METAR KDOV 160730Z 33020G26KT 10SM SCT014 BKN028 OVC039 21/21 A2987 RMK AO2A CIG
                 028V039 BKN V SCT SLP118 =
2017-10-16 02:58 METAR KDOV 160658Z 28009KT 10SM SCT022 BKN030 22/19 A2986 RMK AO2A CIG 022 RWY01
                 SLP115 TSNO $ =
2017-10-16 02:48 METAR KDOV 160648Z AUTO 26007KT 10SM BKN022 BKN027 BKN090 22/22 A2986 RMK AO2
                 CIG 022V120 SLP115 $ =
2017-10-16 01:58 METAR KDOV 160558Z 24009KT 10SM SCT028 OVC095 22/19 A2986 RMK AO2A SLP115 10218
                 20203 53004 $ =
2017-10-16 00:58 METAR KDOV 160458Z 22011KT 10SM BKN090 BKN110 22/19 A2985 RMK AO2A SLP111
                 402370188 $ =
2017-10-15 23:58 METAR KDOV 160358Z 21015KT 10SM CLR 22/19 A2983 RMK AO2A SLP104 $ =

Support USWX by starting your Amazon purchase here.